sensor_id;sensor_type;location;lat;lon;timestamp;temperature;humidity
20155;DHT22;10238;49.556;10.956;2024-01-30T00:00:54;-1.30;99.90
20155;DHT22;10238;49.556;10.956;2024-01-30T00:03:44;-1.40;99.90
20155;DHT22;10238;49.556;10.956;2024-01-30T00:06:35;-1.40;99.90
20155;DHT22;10238;49.556;10.956;2024-01-30T00:09:26;-1.40;99.90
20155;DHT22;10238;49.556;10.956;2024-01-30T00:12:14;-1.40;99.90
20155;DHT22;10238;49.556;10.956;2024-01-30T00:15:03;-1.40;99.90
20155;DHT22;10238;49.556;10.956;2024-01-30T00:17:57;-1.40;99.90
20155;DHT22;10238;49.556;10.956;2024-01-30T00:20:47;-1.40;99.90
20155;DHT22;10238;49.556;10.956;2024-01-30T00:23:35;-1.40;99.90
20155;DHT22;10238;49.556;10.956;2024-01-30T00:26:25;-1.40;99.90
20155;DHT22;10238;49.556;10.956;2024-01-30T00:29:14;-1.40;99.90
20155;DHT22;10238;49.556;10.956;2024-01-30T00:32:06;-1.30;99.90
20155;DHT22;10238;49.556;10.956;2024-01-30T00:34:54;-1.30;99.90
20155;DHT22;10238;49.556;10.956;2024-01-30T00:37:42;-1.30;99.90
20155;DHT22;10238;49.556;10.956;2024-01-30T00:40:30;-1.30;99.90
20155;DHT22;10238;49.556;10.956;2024-01-30T00:43:22;-1.40;99.90
20155;DHT22;10238;49.556;10.956;2024-01-30T00:46:11;-1.40;99.90
20155;DHT22;10238;49.556;10.956;2024-01-30T00:48:59;-1.40;99.90
20155;DHT22;10238;49.556;10.956;2024-01-30T00:51:47;-1.30;99.90
20155;DHT22;10238;49.556;10.956;2024-01-30T00:54:35;-1.30;99.90
20155;DHT22;10238;49.556;10.956;2024-01-30T00:57:23;-1.40;99.90
20155;DHT22;10238;49.556;10.956;2024-01-30T01:00:15;-1.40;99.90
20155;DHT22;10238;49.556;10.956;2024-01-30T01:03:05;-1.50;99.90
20155;DHT22;10238;49.556;10.956;2024-01-30T01:05:55;-1.50;99.90
20155;DHT22;10238;49.556;10.956;2024-01-30T01:08:43;-1.50;99.90
20155;DHT22;10238;49.556;10.956;2024-01-30T01:11:31;-1.60;99.90
20155;DHT22;10238;49.556;10.956;2024-01-30T01:14:20;-1.50;99.90
20155;DHT22;10238;49.556;10.956;2024-01-30T01:17:12;-1.50;99.90
20155;DHT22;10238;49.556;10.956;2024-01-30T01:19:59;-1.50;99.90
20155;DHT22;10238;49.556;10.956;2024-01-30T01:22:47;-1.50;99.90
20155;DHT22;10238;49.556;10.956;2024-01-30T01:25:35;-1.50;99.90
20155;DHT22;10238;49.556;10.956;2024-01-30T01:28:23;-1.60;99.90
20155;DHT22;10238;49.556;10.956;2024-01-30T01:31:15;-1.60;99.90
20155;DHT22;10238;49.556;10.956;2024-01-30T01:34:06;-1.60;99.90
20155;DHT22;10238;49.556;10.956;2024-01-30T01:36:55;-1.60;99.90
20155;DHT22;10238;49.556;10.956;2024-01-30T01:39:43;-1.60;99.90
20155;DHT22;10238;49.556;10.956;2024-01-30T01:42:35;-1.60;99.90
20155;DHT22;10238;49.556;10.956;2024-01-30T01:45:24;-1.60;99.90
20155;DHT22;10238;49.556;10.956;2024-01-30T01:48:12;-1.60;99.90
20155;DHT22;10238;49.556;10.956;2024-01-30T01:51:02;-1.60;99.90
20155;DHT22;10238;49.556;10.956;2024-01-30T01:53:51;-1.70;99.90
20155;DHT22;10238;49.556;10.956;2024-01-30T01:56:39;-1.70;99.90
20155;DHT22;10238;49.556;10.956;2024-01-30T01:59:27;-1.70;99.90
20155;DHT22;10238;49.556;10.956;2024-01-30T02:02:17;-1.70;99.90
20155;DHT22;10238;49.556;10.956;2024-01-30T02:05:07;-1.70;99.90
20155;DHT22;10238;49.556;10.956;2024-01-30T02:07:57;-1.70;99.90
20155;DHT22;10238;49.556;10.956;2024-01-30T02:10:46;-1.70;99.90
20155;DHT22;10238;49.556;10.956;2024-01-30T02:13:33;-1.70;99.90
20155;DHT22;10238;49.556;10.956;2024-01-30T02:16:21;-1.70;99.90
20155;DHT22;10238;49.556;10.956;2024-01-30T02:19:09;-1.70;99.90
20155;DHT22;10238;49.556;10.956;2024-01-30T02:21:59;-1.70;99.90
20155;DHT22;10238;49.556;10.956;2024-01-30T02:24:47;-1.60;99.90
20155;DHT22;10238;49.556;10.956;2024-01-30T02:27:38;-1.50;99.90
20155;DHT22;10238;49.556;10.956;2024-01-30T02:31:03;-1.50;99.90
20155;DHT22;10238;49.556;10.956;2024-01-30T02:34:25;-1.50;99.90
20155;DHT22;10238;49.556;10.956;2024-01-30T02:46:08;-1.70;99.90
20155;DHT22;10238;49.556;10.956;2024-01-30T02:48:59;-1.80;99.90
20155;DHT22;10238;49.556;10.956;2024-01-30T02:51:59;-1.80;99.90
20155;DHT22;10238;49.556;10.956;2024-01-30T02:56:01;-1.80;99.90
20155;DHT22;10238;49.556;10.956;2024-01-30T02:58:49;-1.90;99.90
20155;DHT22;10238;49.556;10.956;2024-01-30T03:01:45;-1.90;99.90
20155;DHT22;10238;49.556;10.956;2024-01-30T03:04:34;-1.90;99.90
20155;DHT22;10238;49.556;10.956;2024-01-30T03:07:22;-1.80;99.90
20155;DHT22;10238;49.556;10.956;2024-01-30T03:10:10;-1.70;99.90
20155;DHT22;10238;49.556;10.956;2024-01-30T03:12:58;-1.60;99.90
20155;DHT22;10238;49.556;10.956;2024-01-30T03:15:46;-1.50;99.90
20155;DHT22;10238;49.556;10.956;2024-01-30T03:18:35;-1.50;99.90
20155;DHT22;10238;49.556;10.956;2024-01-30T03:21:24;-1.60;99.90
20155;DHT22;10238;49.556;10.956;2024-01-30T03:24:12;-1.60;99.90
20155;DHT22;10238;49.556;10.956;2024-01-30T03:27:00;-1.40;99.90
20155;DHT22;10238;49.556;10.956;2024-01-30T03:29:48;-1.20;99.90
20155;DHT22;10238;49.556;10.956;2024-01-30T03:32:37;-1.20;99.90
20155;DHT22;10238;49.556;10.956;2024-01-30T03:35:27;-1.10;99.90
20155;DHT22;10238;49.556;10.956;2024-01-30T03:38:16;-1.10;99.90
20155;DHT22;10238;49.556;10.956;2024-01-30T03:41:07;-1.10;99.90
20155;DHT22;10238;49.556;10.956;2024-01-30T03:43:56;-1.10;99.90
20155;DHT22;10238;49.556;10.956;2024-01-30T03:46:43;-1.10;99.90
20155;DHT22;10238;49.556;10.956;2024-01-30T03:49:32;-1.20;99.90
20155;DHT22;10238;49.556;10.956;2024-01-30T03:52:22;-1.20;99.90
20155;DHT22;10238;49.556;10.956;2024-01-30T03:55:11;-1.30;99.90
20155;DHT22;10238;49.556;10.956;2024-01-30T03:57:59;-1.30;99.90
20155;DHT22;10238;49.556;10.956;2024-01-30T04:00:47;-1.20;99.90
20155;DHT22;10238;49.556;10.956;2024-01-30T04:03:35;-1.10;99.90
20155;DHT22;10238;49.556;10.956;2024-01-30T04:06:23;-1.10;99.90
20155;DHT22;10238;49.556;10.956;2024-01-30T04:09:12;-1.00;99.90
20155;DHT22;10238;49.556;10.956;2024-01-30T04:12:01;-1.00;99.90
20155;DHT22;10238;49.556;10.956;2024-01-30T04:14:49;-1.00;99.90
20155;DHT22;10238;49.556;10.956;2024-01-30T04:17:37;-0.90;99.90
20155;DHT22;10238;49.556;10.956;2024-01-30T04:20:26;-0.90;99.90
20155;DHT22;10238;49.556;10.956;2024-01-30T04:23:13;-0.90;99.90
20155;DHT22;10238;49.556;10.956;2024-01-30T04:26:02;-1.00;99.90
20155;DHT22;10238;49.556;10.956;2024-01-30T06:59:58;-1.20;99.90
20155;DHT22;10238;49.556;10.956;2024-01-30T07:02:46;-1.20;99.90
20155;DHT22;10238;49.556;10.956;2024-01-30T07:05:34;-1.10;99.90
20155;DHT22;10238;49.556;10.956;2024-01-30T07:08:21;-1.10;99.90
20155;DHT22;10238;49.556;10.956;2024-01-30T07:11:09;-1.10;99.90
20155;DHT22;10238;49.556;10.956;2024-01-30T07:13:58;-1.10;99.90
20155;DHT22;10238;49.556;10.956;2024-01-30T07:16:47;-1.00;99.90
20155;DHT22;10238;49.556;10.956;2024-01-30T07:19:35;-1.10;99.90
20155;DHT22;10238;49.556;10.956;2024-01-30T07:22:22;-1.00;99.90
20155;DHT22;10238;49.556;10.956;2024-01-30T07:25:10;-1.00;99.90
20155;DHT22;10238;49.556;10.956;2024-01-30T07:27:58;-0.90;99.90
20155;DHT22;10238;49.556;10.956;2024-01-30T07:30:46;-0.90;99.90
20155;DHT22;10238;49.556;10.956;2024-01-30T07:33:35;-0.80;99.90
20155;DHT22;10238;49.556;10.956;2024-01-30T07:36:24;-0.80;99.90
20155;DHT22;10238;49.556;10.956;2024-01-30T07:39:12;-0.70;99.90
20155;DHT22;10238;49.556;10.956;2024-01-30T07:42:00;-0.60;99.90
20155;DHT22;10238;49.556;10.956;2024-01-30T07:44:50;-0.50;99.90
20155;DHT22;10238;49.556;10.956;2024-01-30T07:47:38;-0.40;99.90
20155;DHT22;10238;49.556;10.956;2024-01-30T07:50:27;-0.30;99.90
20155;DHT22;10238;49.556;10.956;2024-01-30T07:53:15;-0.30;99.90
20155;DHT22;10238;49.556;10.956;2024-01-30T07:56:03;-0.20;99.90
20155;DHT22;10238;49.556;10.956;2024-01-30T07:58:51;-0.20;99.90
20155;DHT22;10238;49.556;10.956;2024-01-30T08:01:39;-0.10;99.90
20155;DHT22;10238;49.556;10.956;2024-01-30T08:04:27;0.00;99.90
20155;DHT22;10238;49.556;10.956;2024-01-30T08:07:17;0.10;99.90
20155;DHT22;10238;49.556;10.956;2024-01-30T08:10:05;0.20;99.90
20155;DHT22;10238;49.556;10.956;2024-01-30T08:12:54;0.20;99.90
20155;DHT22;10238;49.556;10.956;2024-01-30T08:15:41;0.30;99.90
20155;DHT22;10238;49.556;10.956;2024-01-30T08:18:29;0.40;99.90
20155;DHT22;10238;49.556;10.956;2024-01-30T08:21:16;0.50;99.90
20155;DHT22;10238;49.556;10.956;2024-01-30T08:24:07;0.70;99.90
20155;DHT22;10238;49.556;10.956;2024-01-30T08:26:55;0.80;99.90
20155;DHT22;10238;49.556;10.956;2024-01-30T08:29:44;0.90;99.90
20155;DHT22;10238;49.556;10.956;2024-01-30T08:32:32;1.00;99.90
20155;DHT22;10238;49.556;10.956;2024-01-30T08:35:19;1.00;99.90
20155;DHT22;10238;49.556;10.956;2024-01-30T08:38:07;1.10;99.90
20155;DHT22;10238;49.556;10.956;2024-01-30T08:40:56;1.10;99.90
20155;DHT22;10238;49.556;10.956;2024-01-30T08:43:44;1.20;99.90
20155;DHT22;10238;49.556;10.956;2024-01-30T08:46:31;1.20;99.90
20155;DHT22;10238;49.556;10.956;2024-01-30T08:49:20;1.30;99.90
20155;DHT22;10238;49.556;10.956;2024-01-30T08:52:08;1.40;99.90
20155;DHT22;10238;49.556;10.956;2024-01-30T08:54:55;1.50;99.90
20155;DHT22;10238;49.556;10.956;2024-01-30T08:57:44;1.60;99.90
20155;DHT22;10238;49.556;10.956;2024-01-30T09:00:32;1.60;99.90
20155;DHT22;10238;49.556;10.956;2024-01-30T09:03:20;1.70;99.90
20155;DHT22;10238;49.556;10.956;2024-01-30T09:06:08;1.80;99.90
20155;DHT22;10238;49.556;10.956;2024-01-30T09:08:56;1.90;99.90
20155;DHT22;10238;49.556;10.956;2024-01-30T09:11:44;2.00;99.90
20155;DHT22;10238;49.556;10.956;2024-01-30T09:14:33;2.10;99.90
20155;DHT22;10238;49.556;10.956;2024-01-30T09:17:21;2.20;99.90
20155;DHT22;10238;49.556;10.956;2024-01-30T09:20:09;2.30;99.90
20155;DHT22;10238;49.556;10.956;2024-01-30T09:22:58;2.40;99.90
20155;DHT22;10238;49.556;10.956;2024-01-30T09:25:45;2.50;99.90
20155;DHT22;10238;49.556;10.956;2024-01-30T09:28:33;2.60;99.90
20155;DHT22;10238;49.556;10.956;2024-01-30T09:31:22;2.70;99.90
20155;DHT22;10238;49.556;10.956;2024-01-30T09:34:10;2.80;99.90
20155;DHT22;10238;49.556;10.956;2024-01-30T09:36:58;2.80;99.90
20155;DHT22;10238;49.556;10.956;2024-01-30T09:39:46;3.00;99.90
20155;DHT22;10238;49.556;10.956;2024-01-30T09:42:35;3.00;99.90
20155;DHT22;10238;49.556;10.956;2024-01-30T09:45:24;3.10;99.90
20155;DHT22;10238;49.556;10.956;2024-01-30T09:48:15;3.20;99.90
20155;DHT22;10238;49.556;10.956;2024-01-30T09:51:03;3.20;99.90
20155;DHT22;10238;49.556;10.956;2024-01-30T09:53:53;3.30;99.90
20155;DHT22;10238;49.556;10.956;2024-01-30T09:56:42;3.40;99.90
20155;DHT22;10238;49.556;10.956;2024-01-30T09:59:30;3.40;99.90
20155;DHT22;10238;49.556;10.956;2024-01-30T10:02:18;3.50;99.90
20155;DHT22;10238;49.556;10.956;2024-01-30T10:05:08;3.50;99.90
20155;DHT22;10238;49.556;10.956;2024-01-30T10:07:56;3.60;99.90
20155;DHT22;10238;49.556;10.956;2024-01-30T10:10:46;3.60;99.90
20155;DHT22;10238;49.556;10.956;2024-01-30T10:13:33;3.80;99.90
20155;DHT22;10238;49.556;10.956;2024-01-30T10:16:21;3.80;99.90
20155;DHT22;10238;49.556;10.956;2024-01-30T10:19:09;3.90;99.90
20155;DHT22;10238;49.556;10.956;2024-01-30T10:22:00;4.00;99.90
20155;DHT22;10238;49.556;10.956;2024-01-30T10:24:48;4.00;99.90
20155;DHT22;10238;49.556;10.956;2024-01-30T10:27:36;4.10;99.90
20155;DHT22;10238;49.556;10.956;2024-01-30T10:30:27;4.10;99.90
20155;DHT22;10238;49.556;10.956;2024-01-30T10:33:15;4.20;99.90
20155;DHT22;10238;49.556;10.956;2024-01-30T10:36:05;4.20;99.90
20155;DHT22;10238;49.556;10.956;2024-01-30T10:38:55;4.30;99.90
20155;DHT22;10238;49.556;10.956;2024-01-30T10:41:47;4.30;99.90
20155;DHT22;10238;49.556;10.956;2024-01-30T10:44:44;4.40;99.90
20155;DHT22;10238;49.556;10.956;2024-01-30T10:47:44;4.40;99.90
20155;DHT22;10238;49.556;10.956;2024-01-30T10:50:37;4.50;99.90
20155;DHT22;10238;49.556;10.956;2024-01-30T10:53:39;4.60;99.90
20155;DHT22;10238;49.556;10.956;2024-01-30T10:56:29;4.70;99.90
20155;DHT22;10238;49.556;10.956;2024-01-30T10:59:19;4.70;99.90
20155;DHT22;10238;49.556;10.956;2024-01-30T11:02:11;4.80;99.90
20155;DHT22;10238;49.556;10.956;2024-01-30T11:04:59;4.90;99.90
20155;DHT22;10238;49.556;10.956;2024-01-30T11:07:47;5.10;99.90
20155;DHT22;10238;49.556;10.956;2024-01-30T11:10:44;5.20;99.90
20155;DHT22;10238;49.556;10.956;2024-01-30T11:13:34;5.30;99.90
20155;DHT22;10238;49.556;10.956;2024-01-30T11:16:22;5.40;99.90
20155;DHT22;10238;49.556;10.956;2024-01-30T11:19:11;5.50;99.90
20155;DHT22;10238;49.556;10.956;2024-01-30T11:21:59;5.60;99.90
20155;DHT22;10238;49.556;10.956;2024-01-30T11:24:47;5.70;99.90
20155;DHT22;10238;49.556;10.956;2024-01-30T11:27:36;5.80;99.90
20155;DHT22;10238;49.556;10.956;2024-01-30T11:30:27;5.90;99.90
20155;DHT22;10238;49.556;10.956;2024-01-30T11:33:27;6.00;99.90
20155;DHT22;10238;49.556;10.956;2024-01-30T11:36:21;6.10;99.90
20155;DHT22;10238;49.556;10.956;2024-01-30T11:39:13;6.20;99.90
20155;DHT22;10238;49.556;10.956;2024-01-30T11:42:06;6.20;99.90
20155;DHT22;10238;49.556;10.956;2024-01-30T11:44:55;6.30;99.90
20155;DHT22;10238;49.556;10.956;2024-01-30T11:47:45;6.40;99.90
20155;DHT22;10238;49.556;10.956;2024-01-30T11:50:33;6.50;99.90
20155;DHT22;10238;49.556;10.956;2024-01-30T11:53:22;6.50;99.90
20155;DHT22;10238;49.556;10.956;2024-01-30T11:56:09;6.50;99.90
20155;DHT22;10238;49.556;10.956;2024-01-30T11:58:59;6.60;99.90
20155;DHT22;10238;49.556;10.956;2024-01-30T12:01:48;6.60;99.90
20155;DHT22;10238;49.556;10.956;2024-01-30T12:04:37;6.70;99.90
20155;DHT22;10238;49.556;10.956;2024-01-30T12:07:25;6.80;99.90
20155;DHT22;10238;49.556;10.956;2024-01-30T12:10:14;6.90;99.90
20155;DHT22;10238;49.556;10.956;2024-01-30T12:13:03;6.90;99.90
20155;DHT22;10238;49.556;10.956;2024-01-30T12:15:51;7.00;99.90
20155;DHT22;10238;49.556;10.956;2024-01-30T12:18:39;7.20;99.90
20155;DHT22;10238;49.556;10.956;2024-01-30T12:21:28;7.30;99.90
20155;DHT22;10238;49.556;10.956;2024-01-30T12:24:17;7.30;99.90
20155;DHT22;10238;49.556;10.956;2024-01-30T12:27:08;7.40;99.90
20155;DHT22;10238;49.556;10.956;2024-01-30T12:29:56;7.50;99.90
20155;DHT22;10238;49.556;10.956;2024-01-30T12:32:51;7.60;99.90
20155;DHT22;10238;49.556;10.956;2024-01-30T12:35:39;7.70;99.90
20155;DHT22;10238;49.556;10.956;2024-01-30T12:38:41;7.90;99.90
20155;DHT22;10238;49.556;10.956;2024-01-30T12:41:29;7.90;99.90
20155;DHT22;10238;49.556;10.956;2024-01-30T12:44:20;8.00;99.90
20155;DHT22;10238;49.556;10.956;2024-01-30T12:47:09;8.10;99.90
20155;DHT22;10238;49.556;10.956;2024-01-30T12:49:57;8.30;99.90
20155;DHT22;10238;49.556;10.956;2024-01-30T12:52:48;8.40;99.90
20155;DHT22;10238;49.556;10.956;2024-01-30T12:55:37;8.50;99.90
20155;DHT22;10238;49.556;10.956;2024-01-30T12:58:25;8.50;99.90
20155;DHT22;10238;49.556;10.956;2024-01-30T13:01:13;8.50;99.90
20155;DHT22;10238;49.556;10.956;2024-01-30T13:04:01;8.50;99.90
20155;DHT22;10238;49.556;10.956;2024-01-30T13:06:49;8.50;99.90
20155;DHT22;10238;49.556;10.956;2024-01-30T13:09:37;8.60;99.90
20155;DHT22;10238;49.556;10.956;2024-01-30T13:12:27;8.60;99.90
20155;DHT22;10238;49.556;10.956;2024-01-30T13:15:15;8.70;99.90
20155;DHT22;10238;49.556;10.956;2024-01-30T13:18:04;8.70;99.90
20155;DHT22;10238;49.556;10.956;2024-01-30T13:20:52;8.70;99.90
20155;DHT22;10238;49.556;10.956;2024-01-30T13:23:40;8.60;99.90
20155;DHT22;10238;49.556;10.956;2024-01-30T13:26:28;8.60;99.90
20155;DHT22;10238;49.556;10.956;2024-01-30T13:29:18;8.60;99.90
20155;DHT22;10238;49.556;10.956;2024-01-30T13:32:06;8.60;99.90
20155;DHT22;10238;49.556;10.956;2024-01-30T13:34:54;8.70;99.90
20155;DHT22;10238;49.556;10.956;2024-01-30T13:37:42;8.70;99.90
20155;DHT22;10238;49.556;10.956;2024-01-30T13:40:30;8.80;99.90
20155;DHT22;10238;49.556;10.956;2024-01-30T13:43:18;8.90;99.90
20155;DHT22;10238;49.556;10.956;2024-01-30T13:46:07;9.00;99.90
20155;DHT22;10238;49.556;10.956;2024-01-30T13:48:55;9.00;99.90
20155;DHT22;10238;49.556;10.956;2024-01-30T13:51:43;9.10;99.90
20155;DHT22;10238;49.556;10.956;2024-01-30T13:54:30;9.10;99.90
20155;DHT22;10238;49.556;10.956;2024-01-30T13:57:18;9.10;99.90
20155;DHT22;10238;49.556;10.956;2024-01-30T14:00:08;9.10;99.90
20155;DHT22;10238;49.556;10.956;2024-01-30T14:02:58;9.10;99.90
20155;DHT22;10238;49.556;10.956;2024-01-30T14:05:46;9.20;99.90
20155;DHT22;10238;49.556;10.956;2024-01-30T14:08:34;9.20;99.90
20155;DHT22;10238;49.556;10.956;2024-01-30T14:11:33;9.20;99.90
20155;DHT22;10238;49.556;10.956;2024-01-30T14:14:21;9.20;99.90
20155;DHT22;10238;49.556;10.956;2024-01-30T14:17:09;9.10;99.90
20155;DHT22;10238;49.556;10.956;2024-01-30T14:19:58;9.10;99.90
20155;DHT22;10238;49.556;10.956;2024-01-30T14:22:46;9.10;99.90
20155;DHT22;10238;49.556;10.956;2024-01-30T14:25:35;9.10;99.90
20155;DHT22;10238;49.556;10.956;2024-01-30T14:28:23;9.10;99.90
20155;DHT22;10238;49.556;10.956;2024-01-30T14:31:11;9.10;99.90
20155;DHT22;10238;49.556;10.956;2024-01-30T14:33:59;9.10;99.90
20155;DHT22;10238;49.556;10.956;2024-01-30T14:36:48;9.00;99.90
20155;DHT22;10238;49.556;10.956;2024-01-30T14:39:36;9.00;99.90
20155;DHT22;10238;49.556;10.956;2024-01-30T14:42:26;8.90;99.90
20155;DHT22;10238;49.556;10.956;2024-01-30T14:45:18;9.00;99.90
20155;DHT22;10238;49.556;10.956;2024-01-30T14:48:07;8.90;99.90
20155;DHT22;10238;49.556;10.956;2024-01-30T14:50:54;8.80;99.90
20155;DHT22;10238;49.556;10.956;2024-01-30T14:53:43;8.80;99.90
20155;DHT22;10238;49.556;10.956;2024-01-30T14:56:31;8.80;99.90
20155;DHT22;10238;49.556;10.956;2024-01-30T14:59:19;8.80;99.90
20155;DHT22;10238;49.556;10.956;2024-01-30T15:02:06;8.80;99.90
20155;DHT22;10238;49.556;10.956;2024-01-30T15:04:54;8.70;99.90
20155;DHT22;10238;49.556;10.956;2024-01-30T15:07:43;8.70;99.90
20155;DHT22;10238;49.556;10.956;2024-01-30T15:10:32;8.60;99.90
20155;DHT22;10238;49.556;10.956;2024-01-30T15:13:20;8.50;99.90
20155;DHT22;10238;49.556;10.956;2024-01-30T15:16:08;8.50;99.90
20155;DHT22;10238;49.556;10.956;2024-01-30T15:18:56;8.30;99.90
20155;DHT22;10238;49.556;10.956;2024-01-30T15:21:44;8.30;99.90
20155;DHT22;10238;49.556;10.956;2024-01-30T15:24:32;8.20;99.90
20155;DHT22;10238;49.556;10.956;2024-01-30T15:27:23;8.10;99.90
20155;DHT22;10238;49.556;10.956;2024-01-30T15:30:14;8.10;99.90
20155;DHT22;10238;49.556;10.956;2024-01-30T15:33:02;7.90;99.90
20155;DHT22;10238;49.556;10.956;2024-01-30T15:35:50;7.80;99.90
20155;DHT22;10238;49.556;10.956;2024-01-30T15:38:38;7.80;99.90
20155;DHT22;10238;49.556;10.956;2024-01-30T15:41:26;7.80;99.90
20155;DHT22;10238;49.556;10.956;2024-01-30T15:44:15;7.70;99.90
20155;DHT22;10238;49.556;10.956;2024-01-30T15:47:03;7.60;99.90
20155;DHT22;10238;49.556;10.956;2024-01-30T15:49:51;7.50;99.90
20155;DHT22;10238;49.556;10.956;2024-01-30T15:52:39;7.40;99.90
20155;DHT22;10238;49.556;10.956;2024-01-30T15:55:28;7.40;99.90
20155;DHT22;10238;49.556;10.956;2024-01-30T15:58:17;7.30;99.90
20155;DHT22;10238;49.556;10.956;2024-01-30T16:01:06;7.20;99.90
20155;DHT22;10238;49.556;10.956;2024-01-30T16:03:53;7.10;99.90
20155;DHT22;10238;49.556;10.956;2024-01-30T16:06:41;7.00;99.90
20155;DHT22;10238;49.556;10.956;2024-01-30T16:09:29;6.90;99.90
20155;DHT22;10238;49.556;10.956;2024-01-30T16:12:18;6.80;99.90
20155;DHT22;10238;49.556;10.956;2024-01-30T16:15:06;6.70;99.90
20155;DHT22;10238;49.556;10.956;2024-01-30T16:17:55;6.70;99.90
20155;DHT22;10238;49.556;10.956;2024-01-30T16:20:42;6.50;99.90
20155;DHT22;10238;49.556;10.956;2024-01-30T16:23:30;6.40;99.90
20155;DHT22;10238;49.556;10.956;2024-01-30T16:26:18;6.30;99.90
20155;DHT22;10238;49.556;10.956;2024-01-30T16:29:07;6.20;99.90
20155;DHT22;10238;49.556;10.956;2024-01-30T16:31:54;6.10;99.90
20155;DHT22;10238;49.556;10.956;2024-01-30T16:34:43;6.00;99.90
20155;DHT22;10238;49.556;10.956;2024-01-30T16:37:31;6.00;99.90
20155;DHT22;10238;49.556;10.956;2024-01-30T16:40:19;5.90;99.90
20155;DHT22;10238;49.556;10.956;2024-01-30T16:43:07;5.80;99.90
20155;DHT22;10238;49.556;10.956;2024-01-30T16:45:54;5.70;99.90
20155;DHT22;10238;49.556;10.956;2024-01-30T16:48:42;5.60;99.90
20155;DHT22;10238;49.556;10.956;2024-01-30T16:51:32;5.60;99.90
20155;DHT22;10238;49.556;10.956;2024-01-30T16:54:20;5.50;99.90
20155;DHT22;10238;49.556;10.956;2024-01-30T16:57:07;5.50;99.90
20155;DHT22;10238;49.556;10.956;2024-01-30T16:59:55;5.40;99.90
20155;DHT22;10238;49.556;10.956;2024-01-30T17:02:42;5.30;99.90
20155;DHT22;10238;49.556;10.956;2024-01-30T17:05:31;5.20;99.90
20155;DHT22;10238;49.556;10.956;2024-01-30T17:08:21;5.20;99.90
20155;DHT22;10238;49.556;10.956;2024-01-30T17:11:09;5.10;99.90
20155;DHT22;10238;49.556;10.956;2024-01-30T17:13:56;5.10;99.90
20155;DHT22;10238;49.556;10.956;2024-01-30T17:16:44;5.00;99.90
20155;DHT22;10238;49.556;10.956;2024-01-30T17:19:42;5.00;99.90
20155;DHT22;10238;49.556;10.956;2024-01-30T17:22:29;4.90;99.90
20155;DHT22;10238;49.556;10.956;2024-01-30T17:25:19;4.90;99.90
20155;DHT22;10238;49.556;10.956;2024-01-30T17:28:07;4.80;99.90
20155;DHT22;10238;49.556;10.956;2024-01-30T17:30:56;4.80;99.90
20155;DHT22;10238;49.556;10.956;2024-01-30T17:33:45;4.70;99.90
20155;DHT22;10238;49.556;10.956;2024-01-30T17:36:33;4.70;99.90
20155;DHT22;10238;49.556;10.956;2024-01-30T17:39:21;4.70;99.90
20155;DHT22;10238;49.556;10.956;2024-01-30T17:42:11;4.60;99.90
20155;DHT22;10238;49.556;10.956;2024-01-30T17:44:59;4.60;99.90
20155;DHT22;10238;49.556;10.956;2024-01-30T17:47:48;4.50;99.90
20155;DHT22;10238;49.556;10.956;2024-01-30T17:50:36;4.40;99.90
20155;DHT22;10238;49.556;10.956;2024-01-30T17:53:23;4.40;99.90
20155;DHT22;10238;49.556;10.956;2024-01-30T17:56:11;4.40;99.90
20155;DHT22;10238;49.556;10.956;2024-01-30T17:59:04;4.30;99.90
20155;DHT22;10238;49.556;10.956;2024-01-30T18:01:52;4.40;99.90
20155;DHT22;10238;49.556;10.956;2024-01-30T18:04:42;4.50;99.90
20155;DHT22;10238;49.556;10.956;2024-01-30T18:07:30;4.50;99.90
20155;DHT22;10238;49.556;10.956;2024-01-30T18:10:18;4.40;99.90
20155;DHT22;10238;49.556;10.956;2024-01-30T18:13:09;4.30;99.90
20155;DHT22;10238;49.556;10.956;2024-01-30T18:16:01;4.30;99.90
20155;DHT22;10238;49.556;10.956;2024-01-30T18:18:53;4.20;99.90
20155;DHT22;10238;49.556;10.956;2024-01-30T18:21:44;4.20;99.90
20155;DHT22;10238;49.556;10.956;2024-01-30T18:24:37;4.10;99.90
20155;DHT22;10238;49.556;10.956;2024-01-30T18:27:28;4.10;99.90
20155;DHT22;10238;49.556;10.956;2024-01-30T18:30:25;4.00;99.90
20155;DHT22;10238;49.556;10.956;2024-01-30T18:33:14;3.90;99.90
20155;DHT22;10238;49.556;10.956;2024-01-30T18:36:03;3.90;99.90
20155;DHT22;10238;49.556;10.956;2024-01-30T18:38:53;3.90;99.90
20155;DHT22;10238;49.556;10.956;2024-01-30T18:41:42;4.00;99.90
20155;DHT22;10238;49.556;10.956;2024-01-30T18:44:30;4.00;99.90
20155;DHT22;10238;49.556;10.956;2024-01-30T18:47:18;3.90;99.90
20155;DHT22;10238;49.556;10.956;2024-01-30T18:50:08;3.90;99.90
20155;DHT22;10238;49.556;10.956;2024-01-30T18:52:56;3.90;99.90
20155;DHT22;10238;49.556;10.956;2024-01-30T18:55:44;3.90;99.90
20155;DHT22;10238;49.556;10.956;2024-01-30T18:58:32;4.10;99.90
20155;DHT22;10238;49.556;10.956;2024-01-30T19:01:21;4.20;99.90
20155;DHT22;10238;49.556;10.956;2024-01-30T19:04:09;4.30;99.90
20155;DHT22;10238;49.556;10.956;2024-01-30T19:06:58;4.40;99.90
20155;DHT22;10238;49.556;10.956;2024-01-30T19:09:48;4.40;99.90
20155;DHT22;10238;49.556;10.956;2024-01-30T19:12:37;4.40;99.90
20155;DHT22;10238;49.556;10.956;2024-01-30T19:15:26;4.40;99.90
20155;DHT22;10238;49.556;10.956;2024-01-30T19:18:14;4.40;99.90
20155;DHT22;10238;49.556;10.956;2024-01-30T19:21:02;4.30;99.90
20155;DHT22;10238;49.556;10.956;2024-01-30T19:23:52;4.20;99.90
20155;DHT22;10238;49.556;10.956;2024-01-30T19:26:44;4.20;99.90
20155;DHT22;10238;49.556;10.956;2024-01-30T19:29:34;4.10;99.90
20155;DHT22;10238;49.556;10.956;2024-01-30T19:32:22;4.00;99.90
20155;DHT22;10238;49.556;10.956;2024-01-30T19:35:11;4.00;99.90
20155;DHT22;10238;49.556;10.956;2024-01-30T19:37:58;4.00;99.90
20155;DHT22;10238;49.556;10.956;2024-01-30T19:40:48;4.10;99.90
20155;DHT22;10238;49.556;10.956;2024-01-30T19:43:41;4.10;99.90
20155;DHT22;10238;49.556;10.956;2024-01-30T19:46:29;4.10;99.90
20155;DHT22;10238;49.556;10.956;2024-01-30T19:49:19;4.00;99.90
20155;DHT22;10238;49.556;10.956;2024-01-30T19:52:08;4.00;99.90
20155;DHT22;10238;49.556;10.956;2024-01-30T19:54:56;3.90;99.90
20155;DHT22;10238;49.556;10.956;2024-01-30T19:57:46;3.90;99.90
20155;DHT22;10238;49.556;10.956;2024-01-30T20:00:37;3.80;99.90
20155;DHT22;10238;49.556;10.956;2024-01-30T20:03:30;3.80;99.90
20155;DHT22;10238;49.556;10.956;2024-01-30T20:06:19;3.80;99.90
20155;DHT22;10238;49.556;10.956;2024-01-30T20:09:07;3.80;99.90
20155;DHT22;10238;49.556;10.956;2024-01-30T20:11:56;3.90;99.90
20155;DHT22;10238;49.556;10.956;2024-01-30T20:14:45;4.00;99.90
20155;DHT22;10238;49.556;10.956;2024-01-30T20:17:33;4.00;99.90
20155;DHT22;10238;49.556;10.956;2024-01-30T20:20:21;3.90;99.90
20155;DHT22;10238;49.556;10.956;2024-01-30T20:23:09;3.90;99.90
20155;DHT22;10238;49.556;10.956;2024-01-30T20:25:57;3.90;99.90